• Join FlightAware (Why Join?)
  • Login
  • US Flag 
07:47AM EDT


 

Airport Tracker/Info


-or-


 

Live Flight TrackerFlight Track Log ✈ AFL1253 ✈ 26-Apr-2014 ✈ UWKE / NBC - UUEE / SVO

Flight Track Log - Related Links

Times and Time Zones

All times are in EDT time to prevent confusion due to time zone crossing. See the AFL1253 flight status page for this flight to view local times or setup timezone preferences in your user account.

Time Position Orientation Groundspeed Altitude Reporting Facility
EDT Latitude Longitude Course Direction KTS MPH feet Rate Location/Type
10:55AM 55.7729 50.6846 278° West  Level Estimated
10:56AM 55.7836 50.5295 277° West  Level Estimated
10:57AM 55.7940 50.3744 277° West  Level Estimated
10:58AM 55.8043 50.2192 277° West  Level Estimated
10:59AM 55.8144 50.0639 277° West  Level Estimated
11:00AM 55.8242 49.9086 277° West  Level Estimated
11:01AM 55.8339 49.7532 276° West  Level Estimated
11:02AM 55.8434 49.5976 276° West  Level Estimated
11:03AM 55.8527 49.4420 276° West  Level Estimated
11:04AM 55.8618 49.2864 276° West  Level Estimated
11:05AM 55.8707 49.1306 276° West  Level Estimated
11:06AM 55.8793 48.9748 276° West  Level Estimated
11:07AM 55.8879 48.8190 276° West  Level Estimated
11:08AM 55.8961 48.6630 275° West  Level Estimated
11:09AM 55.9043 48.5070 275° West  Level Estimated
11:10AM 55.9141 48.3114 275° West  Level Estimated
11:11AM 55.9237 48.1157 275° West  Level Estimated
11:12AM 55.9329 47.9200 275° West  Level Estimated
11:13AM 55.9419 47.7241 275° West  Level Estimated
11:14AM 55.9505 47.5281 275° West  Level Estimated
11:15AM 55.9588 47.3321 274° West  Level Estimated
11:16AM 55.9669 47.1360 274° West  Level Estimated
11:17AM 55.9745 46.9398 274° West  Level Estimated
11:18AM 55.9819 46.7435 274° West  Level Estimated
11:19AM 55.9890 46.5471 274° West  Level Estimated
11:20AM 55.9958 46.3507 274° West  Level Estimated
11:21AM 56.0022 46.1542 273° West  Level Estimated
11:22AM 56.0084 45.9576 273° West  Level Estimated
11:23AM 56.0142 45.7610 273° West  Level Estimated
11:24AM 56.0197 45.5643 273° West  Level Estimated
11:25AM 56.0249 45.3676 273° West  Level Estimated
11:26AM 56.0298 45.1708 273° West  Level Estimated
11:27AM 56.0344 44.9740 272° West  Level Estimated
11:28AM 56.0386 44.7771 272° West  Level Estimated
11:29AM 56.0426 44.5802 272° West  Level Estimated
11:30AM 56.0462 44.3806 272° West  Level Estimated
11:31AM 56.0496 44.1809 272° West  Level Estimated
11:32AM 56.0526 43.9812 272° West  Level Estimated
11:33AM 56.0554 43.7815 271° West  Level Estimated
11:34AM 56.0577 43.5817 271° West  Level Estimated
11:35AM 56.0598 43.3820 271° West  Level Estimated
11:36AM 56.0616 43.1822 271° West  Level Estimated
11:37AM 56.0630 42.9824 271° West  Level Estimated
11:38AM 56.0641 42.7826 271° West  Level Estimated
11:39AM 56.0649 42.5827 270° West  Level Estimated
11:40AM 56.0653 42.3829 270° West  Level Estimated
11:41AM 56.0654 42.1831 270° West  Level Estimated
11:42AM 56.0653 41.9832 270° West  Level Estimated
11:43AM 56.0647 41.7834 270° West  Level Estimated
11:44AM 56.0639 41.5836 270° West  Level Estimated
11:45AM 56.0627 41.3838 269° West  Level Estimated
11:46AM 56.0612 41.1839 269° West  Level Estimated
11:47AM 56.0594 40.9842 269° West  Level Estimated
11:48AM 56.0573 40.7844 269° West  Level Estimated
11:49AM 56.0549 40.5847 269° West  Level Estimated
11:50AM 56.0521 40.3849 269° West  Level Estimated
11:51AM 56.0490 40.1853 268° West  Level Estimated
11:52AM 56.0456 39.9856 268° West  Level Estimated
11:53AM 56.0418 39.7860 268° West  Level Estimated
11:54AM 56.0378 39.5864 268° West  Level Estimated
11:55AM 56.0334 39.3869 268° West  Level Estimated
11:56AM 56.0287 39.1874 268° West  Level Estimated
11:57AM 56.0237 38.9880 267° West  Level Estimated
11:58AM 56.0183 38.7886 267° West  Level Estimated
11:59AM 56.0126 38.5893 267° West  Level Estimated
12:00PM 56.0066 38.3900 267° West  Level Estimated
12:01PM 56.0003 38.1908 267° West  Level Estimated
12:02PM 55.9937 37.9917 267° West  Level Estimated
12:03PM 55.9867 37.7926 267° West  Level Estimated
12:04PM 55.9795 37.5936 266° West  Level Estimated
12:05PM 55.9726 37.4146 266° West  Level Estimated
12:06PM 55.9726 37.4146 North  Level Estimated
12:07PM 55.9726 37.4146 North  Level Estimated
12:08PM 55.9726 37.4146 North  Level Estimated
12:09PM 55.9726 37.4146 North  Level Estimated
12:10PM 55.9726 37.4146 North  Level Estimated
12:11PM 55.9726 37.4146 North  Level Estimated
12:12PM 55.9726 37.4146 North  Level Estimated
12:13PM 55.9726 37.4146 North  Level Estimated
12:14PM 55.9726 37.4146 North  Level Estimated
12:15PM 55.9726 37.4146 North  Level Estimated
12:16PM 55.9726 37.4146 North  Level Estimated